Monte Tamaro — DFKP2 — position and weather

sailwx.info

Track history (hours):
 
Tides and Currents Weather Stations Pressure Air Temp Water Temp Dewpoint Dewpoint Depression Visibility Wind Speed Wind Dir Waves Ship Positions

Monte Tamaro

Last reported at 2014-Oct-24 06:00 UTC. Time now 2014-Oct-25 05:39 UTC.
Position N 18°30' W 082°00'.

Length 272.1 m; beam 40.1 m; draft 13.2 m.

Type: Ship (hazmat cat B). MMSI: 218132000.

Wind from 140 at 11 knots

Waves 1.0 meters (3 feet), 6 second period

Barometer 1009.2 mb
Air temperature 28.8 ° C
Visibility: greater than 10.8 NM
Dewpoint 24.6 ° C
Water temperature 29.0 ° C

Date/timePositionNaut miles runAvg speedWind from/ knotsBaromVisibWave heightAir tempDewpointWater temp
2014-Oct-24 06:00N 18°30' W 082°00'28713.1 140 / 111009.210.8 1.028.824.629.0
2014-Oct-23 08:00N 21°48' W 085°42'9411.7 140 / 111007.210.8 1.026.523.629.0
2014-Oct-23 00:00N 22°54' W 086°54'24513.6 070 / 181008.1 5.4 2.024.722.829.0
2014-Oct-22 06:00N 24°54' W 090°48'7712.9 050 / 161011.010.8 1.024.921.828.0
2014-Oct-22 00:00N 25°36' W 092°00'28312.1 080 / 141010.410.8 2.026.521.927.0
2014-Oct-21 00:33N 29°33' W 094°54'9 9.6
2014-Oct-20 23:34N 29°41' W 094°59'1 0.7
2014-Oct-20 22:32N 29°41' W 095°00'0 0.0
2014-Oct-20 21:29N 29°41' W 095°00'0 0.0
2014-Oct-20 20:32N 29°41' W 095°00'0 0.0
2014-Oct-20 19:32N 29°41' W 095°00'0 0.0
2014-Oct-20 18:32N 29°41' W 095°00'0 0.0
2014-Oct-20 17:32N 29°41' W 095°00'0 0.0
2014-Oct-20 16:32N 29°41' W 095°00'0 0.0
2014-Oct-20 15:17N 29°41' W 095°00'0 0.0
2014-Oct-20 14:32N 29°41' W 095°00'0 0.0
2014-Oct-20 13:32N 29°41' W 095°00'0 0.0
2014-Oct-20 12:32N 29°41' W 095°00'0 0.0
2014-Oct-20 11:32N 29°41' W 095°00'0 0.0
2014-Oct-20 10:32N 29°41' W 095°00'0 0.0
2014-Oct-20 09:32N 29°41' W 095°00'0 0.0
2014-Oct-20 08:26N 29°41' W 095°00'0 0.0
2014-Oct-20 07:32N 29°41' W 095°00'0 0.0
2014-Oct-20 06:29N 29°41' W 095°00'0 0.0
2014-Oct-20 05:32N 29°41' W 095°00'0 0.0
2014-Oct-20 04:32N 29°41' W 095°00'0 0.0
2014-Oct-20 03:32N 29°41' W 095°00'0 0.0
2014-Oct-20 02:23N 29°41' W 095°00'0 0.0
2014-Oct-20 01:32N 29°41' W 095°00'0 0.0
2014-Oct-20 00:29N 29°41' W 095°00'0 0.0
2014-Oct-19 23:33N 29°41' W 095°00'3 3.1
2014-Oct-19 22:34N 29°38' W 094°58'1312.8
2014-Oct-19 21:33N 29°27' W 094°51'1111.3
2014-Oct-19 20:33N 29°20' W 094°41'  
2014-Oct-17 04:26N 19°51' W 096°12'1315.2
2014-Oct-17 03:33N 19°38' W 096°06'1615.8
2014-Oct-17 02:33N 19°24' W 095°60'1312.8
2014-Oct-17 01:34N 19°11' W 096°03'5 5.3
2014-Oct-17 00:34N 19°13' W 096°08'0 0.0
2014-Oct-16 23:32N 19°13' W 096°08'0 0.0
2014-Oct-16 22:32N 19°13' W 096°08'0 0.0
2014-Oct-16 21:32N 19°13' W 096°08'0 0.0
2014-Oct-16 20:32N 19°13' W 096°08'0 0.0
2014-Oct-16 19:32N 19°13' W 096°08'0 0.0
2014-Oct-16 18:32N 19°13' W 096°08'0 0.0
2014-Oct-16 17:32N 19°13' W 096°08'0 0.0
2014-Oct-16 16:32N 19°13' W 096°08'0 0.0
2014-Oct-16 15:32N 19°13' W 096°08'0 0.0
2014-Oct-16 14:32N 19°13' W 096°08'0 0.0
2014-Oct-16 13:32N 19°13' W 096°08'0 0.0
2014-Oct-16 12:32N 19°13' W 096°08'1 0.5
2014-Oct-16 11:33N 19°12' W 096°08'7 7.4
2014-Oct-16 10:33N 19°12' W 095°60'9 9.0
2014-Oct-16 09:33N 19°15' W 095°51'1313.4
2014-Oct-16 08:33N 19°21' W 095°38'72214.9
2014-Oct-14 08:00N 19°12' W 082°54'   110 / 71011.010.8 0.528.024.629.0
Track history (hours):
 
Tides and Currents Weather Stations Pressure Air Temp Water Temp Dewpoint Dewpoint Depression Visibility Wind Speed Wind Dir Waves Ship Positions

Monte Tamaro

Last reported at 2014-Oct-24 06:00 UTC. Time now 2014-Oct-25 05:39 UTC.
Position N 18°30' W 082°00'.

Length 272.1 m; beam 40.1 m; draft 13.2 m.

Type: Ship (hazmat cat B). MMSI: 218132000.

Wind from 140 at 11 knots

Waves 1.0 meters (3 feet), 6 second period

Barometer 1009.2 mb
Air temperature 28.8 ° C
Visibility: greater than 10.8 NM
Dewpoint 24.6 ° C
Water temperature 29.0 ° C

Date/timePositionNaut miles runAvg speedWind from/ knotsBaromVisibWave heightAir tempDewpointWater temp
2014-Oct-24 06:00N 18°30' W 082°00'28713.1 140 / 111009.210.8 1.028.824.629.0
2014-Oct-23 08:00N 21°48' W 085°42'9411.7 140 / 111007.210.8 1.026.523.629.0
2014-Oct-23 00:00N 22°54' W 086°54'24513.6 070 / 181008.1 5.4 2.024.722.829.0
2014-Oct-22 06:00N 24°54' W 090°48'7712.9 050 / 161011.010.8 1.024.921.828.0
2014-Oct-22 00:00N 25°36' W 092°00'28312.1 080 / 141010.410.8 2.026.521.927.0
2014-Oct-21 00:33N 29°33' W 094°54'9 9.6
2014-Oct-20 23:34N 29°41' W 094°59'1 0.7
2014-Oct-20 22:32N 29°41' W 095°00'0 0.0
2014-Oct-20 21:29N 29°41' W 095°00'0 0.0
2014-Oct-20 20:32N 29°41' W 095°00'0 0.0
2014-Oct-20 19:32N 29°41' W 095°00'0 0.0
2014-Oct-20 18:32N 29°41' W 095°00'0 0.0
2014-Oct-20 17:32N 29°41' W 095°00'0 0.0
2014-Oct-20 16:32N 29°41' W 095°00'0 0.0
2014-Oct-20 15:17N 29°41' W 095°00'0 0.0
2014-Oct-20 14:32N 29°41' W 095°00'0 0.0
2014-Oct-20 13:32N 29°41' W 095°00'0 0.0
2014-Oct-20 12:32N 29°41' W 095°00'0 0.0
2014-Oct-20 11:32N 29°41' W 095°00'0 0.0
2014-Oct-20 10:32N 29°41' W 095°00'0 0.0
2014-Oct-20 09:32N 29°41' W 095°00'0 0.0
2014-Oct-20 08:26N 29°41' W 095°00'0 0.0
2014-Oct-20 07:32N 29°41' W 095°00'0 0.0
2014-Oct-20 06:29N 29°41' W 095°00'0 0.0
2014-Oct-20 05:32N 29°41' W 095°00'0 0.0
2014-Oct-20 04:32N 29°41' W 095°00'0 0.0
2014-Oct-20 03:32N 29°41' W 095°00'0 0.0
2014-Oct-20 02:23N 29°41' W 095°00'0 0.0
2014-Oct-20 01:32N 29°41' W 095°00'0 0.0
2014-Oct-20 00:29N 29°41' W 095°00'0 0.0
2014-Oct-19 23:33N 29°41' W 095°00'3 3.1
2014-Oct-19 22:34N 29°38' W 094°58'1312.8
2014-Oct-19 21:33N 29°27' W 094°51'1111.3
2014-Oct-19 20:33N 29°20' W 094°41'  
2014-Oct-17 04:26N 19°51' W 096°12'1315.2
2014-Oct-17 03:33N 19°38' W 096°06'1615.8
2014-Oct-17 02:33N 19°24' W 095°60'1312.8
2014-Oct-17 01:34N 19°11' W 096°03'5 5.3
2014-Oct-17 00:34N 19°13' W 096°08'0 0.0
2014-Oct-16 23:32N 19°13' W 096°08'0 0.0
2014-Oct-16 22:32N 19°13' W 096°08'0 0.0
2014-Oct-16 21:32N 19°13' W 096°08'0 0.0
2014-Oct-16 20:32N 19°13' W 096°08'0 0.0
2014-Oct-16 19:32N 19°13' W 096°08'0 0.0
2014-Oct-16 18:32N 19°13' W 096°08'0 0.0
2014-Oct-16 17:32N 19°13' W 096°08'0 0.0
2014-Oct-16 16:32N 19°13' W 096°08'0 0.0
2014-Oct-16 15:32N 19°13' W 096°08'0 0.0
2014-Oct-16 14:32N 19°13' W 096°08'0 0.0
2014-Oct-16 13:32N 19°13' W 096°08'0 0.0
2014-Oct-16 12:32N 19°13' W 096°08'1 0.5
2014-Oct-16 11:33N 19°12' W 096°08'7 7.4
2014-Oct-16 10:33N 19°12' W 095°60'9 9.0
2014-Oct-16 09:33N 19°15' W 095°51'1313.4
2014-Oct-16 08:33N 19°21' W 095°38'72214.9
2014-Oct-14 08:00N 19°12' W 082°54'   110 / 71011.010.8 0.528.024.629.0

Dump ship's entire track history